createdAt,value
2023-03-01T00:01:09.348Z,17.73
2023-03-01T00:03:36.648Z,20.55
2023-03-01T00:06:04.203Z,22.77
2023-03-01T00:08:31.353Z,19.73
2023-03-01T00:11:06.915Z,19.58
2023-03-01T00:13:34.311Z,20.67
2023-03-01T00:16:04.181Z,18.70
2023-03-01T00:18:30.916Z,22.00
2023-03-01T00:20:57.595Z,18.83
2023-03-01T00:23:24.814Z,23.30
2023-03-01T00:25:51.798Z,24.75
2023-03-01T00:28:18.910Z,22.98
2023-03-01T00:30:46.375Z,22.73
2023-03-01T00:33:13.590Z,20.02
2023-03-01T00:35:40.472Z,21.98
2023-03-01T00:38:07.703Z,21.05
2023-03-01T00:40:35.985Z,19.25
2023-03-01T00:43:03.889Z,22.38
2023-03-01T00:45:32.096Z,21.60
2023-03-01T00:47:59.200Z,23.52
2023-03-01T00:50:26.963Z,23.80
2023-03-01T00:52:55.204Z,25.88
2023-03-01T00:55:22.338Z,23.05
2023-03-01T00:57:49.109Z,24.63
2023-03-01T01:00:16.151Z,24.05
2023-03-01T01:02:43.100Z,25.13
2023-03-01T01:05:10.616Z,24.92
2023-03-01T01:07:37.534Z,24.73
2023-03-01T01:10:05.079Z,24.65
2023-03-01T01:12:31.885Z,27.38
2023-03-01T01:14:58.646Z,25.75
2023-03-01T01:17:25.474Z,27.30
2023-03-01T01:19:52.193Z,27.90
2023-03-01T01:22:18.861Z,28.92
2023-03-01T01:24:45.576Z,26.42
2023-03-01T01:27:12.456Z,28.25
2023-03-01T01:29:39.196Z,26.83
2023-03-01T01:32:06.155Z,29.15
2023-03-01T01:34:32.907Z,29.33
2023-03-01T01:37:03.652Z,32.88
2023-03-01T01:39:30.599Z,28.98
2023-03-01T01:41:57.381Z,29.50
2023-03-01T01:44:27.139Z,33.10
2023-03-01T01:47:01.452Z,32.28
2023-03-01T01:49:38.703Z,32.55
2023-03-01T01:52:14.400Z,33.63
2023-03-01T01:55:06.263Z,34.80
2023-03-01T01:57:46.686Z,33.83
2023-03-01T02:00:16.802Z,35.08
2023-03-01T02:02:45.765Z,38.30
2023-03-01T02:05:20.058Z,36.17
2023-03-01T02:07:48.515Z,35.13
2023-03-01T02:10:16.057Z,37.22
2023-03-01T02:12:43.518Z,38.33
2023-03-01T02:15:10.912Z,37.58
2023-03-01T02:17:38.930Z,35.85
2023-03-01T02:20:27.457Z,35.70
2023-03-01T02:22:55.359Z,37.03
2023-03-01T02:25:48.305Z,41.72
2023-03-01T02:28:14.966Z,39.60
2023-03-01T02:31:07.242Z,39.33
2023-03-01T02:33:37.100Z,40.17
2023-03-01T02:36:12.490Z,40.72
2023-03-01T02:38:39.185Z,38.47
2023-03-01T02:41:07.989Z,42.15
2023-03-01T02:43:35.849Z,42.67
2023-03-01T02:46:18.720Z,40.70
2023-03-01T02:48:54.249Z,41.33
2023-03-01T02:51:39.282Z,41.75
2023-03-01T02:54:50.752Z,40.08
2023-03-01T02:57:18.735Z,43.43
2023-03-01T02:59:45.534Z,48.63
2023-03-01T03:02:44.678Z,46.40
2023-03-01T03:05:20.062Z,41.60
2023-03-01T03:07:48.939Z,45.88
2023-03-01T03:10:25.447Z,44.45
2023-03-01T03:12:55.583Z,42.22
2023-03-01T03:15:23.609Z,48.90
2023-03-01T03:17:52.215Z,47.05
2023-03-01T03:20:21.319Z,49.33
2023-03-01T03:22:49.778Z,48.95
2023-03-01T03:25:18.091Z,47.72
2023-03-01T03:27:46.367Z,52.22
2023-03-01T03:30:16.344Z,46.10
2023-03-01T03:32:53.704Z,50.45
2023-03-01T03:35:32.655Z,48.03
2023-03-01T03:38:04.748Z,52.90
2023-03-01T03:40:35.823Z,52.08
2023-03-01T03:43:05.116Z,54.35
2023-03-01T03:45:34.279Z,52.38
2023-03-01T03:48:02.245Z,53.65
2023-03-01T03:50:29.019Z,55.08
2023-03-01T03:52:56.043Z,54.53
2023-03-01T03:55:22.903Z,54.63
2023-03-01T03:57:54.932Z,57.17
2023-03-01T04:00:24.776Z,53.78
2023-03-01T04:02:52.297Z,54.20
2023-03-01T04:05:20.144Z,58.10
2023-03-01T04:07:47.121Z,57.20
2023-03-01T04:10:16.857Z,53.45
2023-03-01T04:12:44.242Z,56.33
2023-03-01T04:15:15.767Z,56.33
2023-03-01T04:17:47.722Z,57.20
2023-03-01T04:20:25.446Z,55.35
2023-03-01T04:22:54.161Z,57.60
2023-03-01T04:25:21.236Z,56.00
2023-03-01T04:27:48.036Z,57.03
2023-03-01T04:30:15.199Z,53.50
2023-03-01T04:32:42.120Z,59.88
2023-03-01T04:35:09.497Z,62.40
2023-03-01T04:37:36.286Z,60.92
2023-03-01T04:40:13.987Z,54.47
2023-03-01T04:42:40.960Z,59.38
2023-03-01T04:45:13.902Z,58.55
2023-03-01T04:47:42.501Z,53.58
2023-03-01T04:50:10.422Z,57.28
2023-03-01T04:52:38.556Z,60.05
2023-03-01T04:55:05.757Z,53.10
2023-03-01T04:57:32.955Z,52.83
2023-03-01T04:59:59.765Z,59.63
2023-03-01T05:02:26.534Z,53.60
2023-03-01T05:04:53.222Z,55.10
2023-03-01T05:07:20.432Z,58.17
2023-03-01T05:09:47.634Z,77.38
2023-03-01T05:12:15.152Z,199.77
2023-03-01T05:14:42.361Z,103.75
2023-03-01T05:17:09.136Z,120.35
2023-03-01T05:19:35.881Z,177.65
2023-03-01T05:22:02.721Z,66.65
2023-03-01T05:24:30.907Z,72.53
2023-03-01T05:26:57.644Z,157.35
2023-03-01T05:29:26.214Z,78.50
2023-03-01T05:32:00.551Z,62.72
2023-03-01T05:34:32.498Z,100.93
2023-03-01T05:37:00.026Z,101.70
2023-03-01T05:39:28.893Z,138.50
2023-03-01T05:41:58.190Z,79.03
2023-03-01T05:44:26.321Z,70.20
2023-03-01T05:46:53.524Z,141.35
2023-03-01T05:49:20.367Z,85.80
2023-03-01T05:51:51.970Z,71.15
2023-03-01T05:54:20.026Z,52.03
2023-03-01T05:56:46.786Z,123.85
2023-03-01T05:59:14.749Z,50.28
2023-03-01T06:01:41.745Z,42.90
2023-03-01T06:04:08.492Z,43.30
2023-03-01T06:06:38.451Z,41.33
2023-03-01T06:09:08.216Z,39.33
2023-03-01T06:11:36.192Z,40.28
2023-03-01T06:14:03.308Z,37.63
2023-03-01T06:16:30.324Z,41.25
2023-03-01T06:18:57.240Z,38.10
2023-03-01T06:21:23.963Z,44.17
2023-03-01T06:23:50.750Z,45.33
2023-03-01T06:26:17.491Z,41.40
2023-03-01T06:28:47.011Z,44.97
2023-03-01T06:31:13.904Z,46.38
2023-03-01T06:33:40.805Z,89.10
2023-03-01T06:36:08.519Z,44.85
2023-03-01T06:38:35.494Z,49.05
2023-03-01T06:41:02.860Z,44.70
2023-03-01T06:43:29.663Z,42.53
2023-03-01T06:45:56.798Z,45.67
2023-03-01T06:48:23.514Z,41.55
2023-03-01T06:50:50.321Z,50.55
2023-03-01T06:53:17.100Z,46.08
2023-03-01T06:55:43.855Z,42.63
2023-03-01T06:58:11.287Z,44.75
2023-03-01T07:00:38.044Z,41.20
2023-03-01T07:03:04.824Z,40.55
2023-03-01T07:05:31.840Z,45.10
2023-03-01T07:07:58.642Z,39.70
2023-03-01T07:10:25.570Z,40.50
2023-03-01T07:12:56.127Z,42.28
2023-03-01T07:15:22.877Z,43.35
2023-03-01T07:17:51.653Z,44.63
2023-03-01T07:20:26.240Z,44.08
2023-03-01T07:22:54.823Z,43.10
2023-03-01T07:25:21.999Z,43.42
2023-03-01T07:27:53.265Z,39.75
2023-03-01T07:30:21.916Z,43.75
2023-03-01T07:32:48.841Z,42.60
2023-03-01T07:35:15.963Z,42.97
2023-03-01T07:37:42.939Z,41.67
2023-03-01T07:40:10.456Z,39.35
2023-03-01T07:42:37.496Z,43.13
2023-03-01T07:45:05.683Z,41.92
2023-03-01T07:47:33.083Z,41.78
2023-03-01T07:49:59.792Z,40.92
2023-03-01T07:52:26.596Z,38.60
2023-03-01T07:54:53.375Z,40.78
2023-03-01T07:57:20.125Z,39.75
2023-03-01T07:59:46.900Z,42.30
2023-03-01T08:02:13.896Z,36.47
2023-03-01T08:04:40.639Z,40.05
2023-03-01T08:07:07.431Z,38.70
2023-03-01T08:09:37.688Z,43.75
2023-03-01T08:12:05.960Z,40.33
2023-03-01T08:14:33.693Z,43.47
2023-03-01T08:17:00.692Z,47.05
2023-03-01T08:19:29.083Z,45.63
2023-03-01T08:21:59.097Z,44.63
2023-03-01T08:24:26.026Z,39.42
2023-03-01T08:26:52.751Z,38.10
2023-03-01T08:29:19.467Z,40.20
2023-03-01T08:31:46.363Z,38.00
2023-03-01T08:34:15.280Z,37.40
2023-03-01T08:36:44.584Z,32.47
2023-03-01T08:39:13.709Z,33.08
2023-03-01T08:41:41.263Z,35.03
2023-03-01T08:44:08.736Z,30.30
2023-03-01T08:46:38.631Z,31.63
2023-03-01T08:49:08.067Z,30.88
2023-03-01T08:51:37.739Z,33.22
2023-03-01T08:54:11.984Z,31.23
2023-03-01T08:56:40.964Z,31.60
2023-03-01T08:59:08.094Z,30.55
2023-03-01T09:01:34.833Z,30.70
2023-03-01T09:04:01.626Z,28.90
2023-03-01T09:06:31.074Z,28.48
2023-03-01T09:08:57.906Z,26.30
2023-03-01T09:11:24.630Z,25.35
2023-03-01T09:13:51.781Z,18.65
2023-03-01T09:16:21.077Z,19.10
2023-03-01T09:18:53.008Z,20.50
2023-03-01T09:21:33.712Z,15.90
2023-03-01T09:24:06.038Z,15.00
2023-03-01T09:26:33.108Z,16.58
2023-03-01T09:29:00.259Z,14.90
2023-03-01T09:31:27.163Z,15.27
2023-03-01T09:33:55.430Z,12.43
2023-03-01T09:36:24.582Z,12.90
2023-03-01T09:38:53.055Z,11.23
2023-03-01T09:41:45.425Z,11.60
2023-03-01T09:44:12.183Z,11.80
2023-03-01T09:46:43.331Z,12.57
2023-03-01T09:49:32.551Z,10.02
2023-03-01T09:52:36.880Z,12.75
2023-03-01T09:55:29.680Z,12.23
2023-03-01T09:58:03.656Z,14.82
2023-03-01T10:00:44.434Z,11.65
2023-03-01T10:03:40.446Z,13.00
2023-03-01T10:06:33.895Z,12.07
2023-03-01T10:09:18.015Z,12.20
2023-03-01T10:11:51.212Z,12.32
2023-03-01T10:14:41.639Z,12.10
2023-03-01T10:17:28.646Z,11.10
2023-03-01T10:19:58.459Z,11.73
2023-03-01T10:22:32.458Z,9.65
2023-03-01T10:25:03.266Z,10.57
2023-03-01T10:27:43.468Z,8.80
2023-03-01T10:30:30.981Z,8.30
2023-03-01T10:32:58.671Z,8.73
2023-03-01T10:35:29.282Z,9.68
2023-03-01T10:38:10.782Z,10.40
2023-03-01T10:40:58.330Z,12.02
2023-03-01T10:43:45.129Z,11.05
2023-03-01T10:46:26.927Z,9.50
2023-03-01T10:49:08.964Z,10.27
2023-03-01T10:51:35.717Z,11.02
2023-03-01T10:54:03.098Z,7.70
2023-03-01T10:56:32.097Z,10.23
2023-03-01T10:59:00.539Z,12.27
2023-03-01T11:01:30.796Z,9.25
2023-03-01T11:04:06.836Z,10.25
2023-03-01T11:06:38.757Z,10.82
2023-03-01T11:11:56.979Z,11.10
2023-03-01T11:14:27.872Z,12.68
2023-03-01T11:17:26.740Z,11.45
2023-03-01T11:20:03.241Z,9.93
2023-03-01T11:22:31.662Z,10.15
2023-03-01T11:25:09.271Z,11.90
2023-03-01T11:27:44.628Z,14.07
2023-03-01T11:30:30.034Z,14.35
2023-03-01T11:33:09.076Z,12.93
2023-03-01T11:35:43.198Z,13.52
2023-03-01T11:38:28.241Z,13.40
2023-03-01T11:41:13.907Z,14.05
2023-03-01T11:43:59.821Z,13.82
2023-03-01T11:46:32.686Z,13.27
2023-03-01T11:49:26.297Z,16.33
2023-03-01T11:52:04.854Z,14.00
2023-03-01T11:54:51.837Z,15.30
2023-03-01T11:57:42.838Z,12.38
2023-03-01T12:00:15.534Z,14.50
2023-03-01T12:02:51.561Z,13.43
2023-03-01T12:05:42.977Z,13.43
2023-03-01T12:08:41.773Z,17.42
2023-03-01T12:11:26.433Z,12.48
2023-03-01T12:14:20.427Z,17.05
2023-03-01T12:17:38.434Z,15.48
2023-03-01T12:20:15.434Z,13.48
2023-03-01T12:22:56.024Z,14.95
2023-03-01T12:25:27.767Z,18.23
2023-03-01T12:31:05.066Z,20.60
2023-03-01T12:33:43.231Z,16.95
2023-03-01T12:36:18.361Z,15.55
2023-03-01T12:39:21.090Z,15.45
2023-03-01T12:42:10.207Z,17.23
2023-03-01T12:45:01.062Z,16.60
2023-03-01T12:48:04.999Z,18.25
2023-03-01T12:50:42.524Z,18.13
2023-03-01T12:53:29.192Z,20.35
2023-03-01T12:56:01.209Z,17.02
2023-03-01T12:58:50.620Z,21.83
2023-03-01T13:01:34.037Z,15.32
2023-03-01T13:04:06.811Z,17.00
2023-03-01T13:06:43.796Z,16.63
2023-03-01T13:09:44.528Z,14.95
2023-03-01T13:12:59.540Z,15.35
2023-03-01T13:15:27.733Z,12.93
2023-03-01T13:17:57.153Z,14.63
2023-03-01T13:20:34.099Z,12.75
2023-03-01T13:23:12.302Z,12.18
2023-03-01T13:25:58.439Z,11.23
2023-03-01T13:28:47.013Z,15.05
2023-03-01T13:31:16.915Z,13.25
2023-03-01T13:33:55.928Z,12.07
2023-03-01T13:36:28.611Z,10.73
2023-03-01T13:38:56.199Z,10.20
2023-03-01T13:41:44.909Z,11.15
2023-03-01T13:44:20.615Z,11.07
2023-03-01T13:46:48.856Z,10.63
2023-03-01T13:49:22.485Z,9.95
2023-03-01T13:51:51.041Z,10.10
2023-03-01T13:54:31.575Z,10.77
2023-03-01T13:57:00.262Z,12.98
2023-03-01T13:59:27.365Z,10.13
2023-03-01T14:02:01.670Z,11.45
2023-03-01T14:04:32.246Z,11.00
2023-03-01T14:07:12.248Z,10.75
2023-03-01T14:09:45.560Z,8.57
2023-03-01T14:12:28.036Z,9.65
2023-03-01T14:15:03.435Z,9.98
2023-03-01T14:17:39.684Z,10.35
2023-03-01T14:20:19.238Z,11.27
2023-03-01T14:22:47.025Z,10.55
2023-03-01T14:25:32.633Z,9.32
2023-03-01T14:27:59.416Z,12.93
2023-03-01T14:30:35.036Z,9.65
2023-03-01T14:33:04.640Z,8.68
2023-03-01T14:35:34.807Z,9.13
2023-03-01T14:38:01.817Z,9.52
2023-03-01T14:40:46.514Z,10.73
2023-03-01T14:43:21.363Z,8.50
2023-03-01T14:45:50.594Z,10.00
2023-03-01T14:48:17.966Z,11.52
2023-03-01T14:50:46.082Z,10.07
2023-03-01T14:53:26.599Z,9.15
2023-03-01T14:55:56.010Z,10.82
2023-03-01T14:58:25.234Z,10.25
2023-03-01T15:01:01.555Z,11.00
2023-03-01T15:03:43.057Z,10.50
2023-03-01T15:06:10.165Z,12.18
2023-03-01T15:08:42.021Z,9.88
2023-03-01T15:11:14.779Z,11.20
2023-03-01T15:13:42.259Z,11.18
2023-03-01T15:16:14.899Z,8.35
2023-03-01T15:18:47.409Z,11.43
2023-03-01T15:21:30.599Z,10.57
2023-03-01T15:24:20.246Z,9.85
2023-03-01T15:27:07.845Z,8.45
2023-03-01T15:29:41.329Z,10.82
2023-03-01T15:32:40.171Z,10.13
2023-03-01T15:35:35.689Z,9.05
2023-03-01T15:38:02.588Z,9.80
2023-03-01T15:40:33.681Z,9.82
2023-03-01T15:43:02.279Z,8.43
2023-03-01T15:45:31.166Z,8.32
2023-03-01T15:48:14.897Z,7.93
2023-03-01T15:50:44.232Z,10.68
2023-03-01T15:53:16.065Z,10.18
2023-03-01T15:55:42.976Z,9.65
2023-03-01T15:58:19.224Z,8.30
2023-03-01T16:01:00.292Z,10.57
2023-03-01T16:03:27.686Z,12.85
2023-03-01T16:05:54.683Z,9.75
2023-03-01T16:08:21.479Z,8.45
2023-03-01T16:10:50.873Z,8.88
2023-03-01T16:13:18.700Z,8.00
2023-03-01T16:15:45.510Z,8.23
2023-03-01T16:18:12.797Z,9.27
2023-03-01T16:20:40.169Z,10.98
2023-03-01T16:23:08.994Z,12.98
2023-03-01T16:25:37.125Z,10.40
2023-03-01T16:28:09.436Z,12.23
2023-03-01T16:30:37.354Z,9.55
2023-03-01T16:33:19.115Z,9.98
2023-03-01T16:35:51.638Z,9.63
2023-03-01T16:38:18.436Z,9.38
2023-03-01T16:40:50.311Z,9.52
2023-03-01T16:43:17.415Z,10.68
2023-03-01T16:45:45.823Z,11.15
2023-03-01T16:48:12.882Z,8.43
2023-03-01T16:50:40.282Z,10.25
2023-03-01T16:53:07.052Z,11.20
2023-03-01T16:55:34.377Z,10.98
2023-03-01T16:58:01.710Z,10.23
2023-03-01T17:00:28.959Z,11.07
2023-03-01T17:02:55.944Z,11.73
2023-03-01T17:05:24.878Z,13.55
2023-03-01T17:07:52.168Z,9.75
2023-03-01T17:10:19.139Z,10.45
2023-03-01T17:12:49.966Z,11.38
2023-03-01T17:15:16.770Z,16.40
2023-03-01T17:17:43.536Z,10.35
2023-03-01T17:20:10.964Z,11.50
2023-03-01T17:22:37.737Z,11.48
2023-03-01T17:25:04.952Z,13.07
2023-03-01T17:27:35.639Z,11.35
2023-03-01T17:30:03.008Z,14.48
2023-03-01T17:32:29.903Z,10.27
2023-03-01T17:34:56.759Z,14.07
2023-03-01T17:37:23.637Z,12.55
2023-03-01T17:39:50.554Z,12.88
2023-03-01T17:42:17.277Z,12.00
2023-03-01T17:44:44.097Z,10.70
2023-03-01T17:47:11.327Z,11.57
2023-03-01T17:49:38.003Z,14.35
2023-03-01T17:52:04.868Z,12.00
2023-03-01T17:54:33.487Z,12.15
2023-03-01T17:57:00.640Z,11.75
2023-03-01T17:59:32.907Z,12.25
2023-03-01T18:02:01.383Z,11.15
2023-03-01T18:04:29.074Z,13.32
2023-03-01T18:06:56.189Z,13.15
2023-03-01T18:09:22.983Z,14.15
2023-03-01T18:11:49.702Z,12.15
2023-03-01T18:14:16.452Z,13.23
2023-03-01T18:16:43.150Z,14.13
2023-03-01T18:19:11.619Z,11.65
2023-03-01T18:21:38.382Z,13.25
2023-03-01T18:24:05.487Z,15.38
2023-03-01T18:26:32.630Z,13.93
2023-03-01T18:29:01.189Z,12.32
2023-03-01T18:31:32.496Z,11.10
2023-03-01T18:34:00.967Z,13.70
2023-03-01T18:36:34.135Z,11.90
2023-03-01T18:39:05.890Z,13.52
2023-03-01T18:41:33.146Z,13.68
2023-03-01T18:44:01.428Z,12.32
2023-03-01T18:46:28.322Z,15.60
2023-03-01T18:48:55.114Z,14.50
2023-03-01T18:51:27.176Z,14.77
2023-03-01T18:53:54.195Z,13.40
2023-03-01T18:56:21.010Z,12.07
2023-03-01T18:58:47.867Z,12.48
2023-03-01T19:01:17.559Z,14.02
2023-03-01T19:03:44.843Z,10.38
2023-03-01T19:06:11.760Z,12.10
2023-03-01T19:08:40.441Z,14.95
2023-03-01T19:11:07.869Z,10.85
2023-03-01T19:13:37.393Z,13.32
2023-03-01T19:16:10.242Z,15.18
2023-03-01T19:18:41.028Z,17.67
2023-03-01T19:21:09.996Z,13.82
2023-03-01T19:23:38.346Z,12.70
2023-03-01T19:26:08.472Z,13.57
2023-03-01T19:28:38.406Z,14.50
2023-03-01T19:31:09.321Z,16.27
2023-03-01T19:33:36.644Z,14.02
2023-03-01T19:36:04.648Z,14.02
2023-03-01T19:38:31.708Z,13.23
2023-03-01T19:40:58.458Z,14.20
2023-03-01T19:43:25.477Z,14.50
2023-03-01T19:45:53.450Z,14.50
2023-03-01T19:48:20.765Z,13.88
2023-03-01T19:50:47.993Z,16.33
2023-03-01T19:53:15.683Z,15.70
2023-03-01T19:55:42.421Z,18.67
2023-03-01T19:58:10.613Z,18.55
2023-03-01T20:00:38.906Z,14.93
2023-03-01T20:03:06.709Z,18.17
2023-03-01T20:05:35.145Z,14.07
2023-03-01T20:08:02.311Z,15.10
2023-03-01T20:10:31.353Z,13.93
2023-03-01T20:12:58.369Z,15.98
2023-03-01T20:15:25.448Z,13.85
2023-03-01T20:17:52.187Z,13.48
2023-03-01T20:20:18.998Z,16.35
2023-03-01T20:22:45.723Z,14.57
2023-03-01T20:25:12.520Z,18.15
2023-03-01T20:27:39.381Z,18.20
2023-03-01T20:30:07.168Z,15.45
2023-03-01T20:32:34.150Z,13.52
2023-03-01T20:35:00.944Z,16.75
2023-03-01T20:37:27.675Z,13.77
2023-03-01T20:39:55.331Z,15.18
2023-03-01T20:42:22.100Z,13.85
2023-03-01T20:44:48.860Z,15.32
2023-03-01T20:47:15.938Z,18.35
2023-03-01T20:49:42.683Z,15.30
2023-03-01T20:52:09.455Z,15.68
2023-03-01T20:54:36.330Z,15.77
2023-03-01T20:57:03.198Z,17.55
2023-03-01T20:59:29.905Z,16.92
2023-03-01T21:01:56.596Z,14.82
2023-03-01T21:04:23.378Z,17.02
2023-03-01T21:06:50.118Z,19.13
2023-03-01T21:09:17.261Z,17.48
2023-03-01T21:11:44.104Z,17.42
2023-03-01T21:14:12.497Z,19.05
2023-03-01T21:16:39.372Z,17.92
2023-03-01T21:19:06.158Z,18.80
2023-03-01T21:21:32.908Z,20.15
2023-03-01T21:23:59.717Z,19.65
2023-03-01T21:26:27.510Z,21.02
2023-03-01T21:29:00.217Z,19.70
2023-03-01T21:31:33.958Z,21.33
2023-03-01T21:34:05.986Z,20.75
2023-03-01T21:36:33.996Z,20.65
2023-03-01T21:39:02.166Z,19.73
2023-03-01T21:41:32.776Z,18.90
2023-03-01T21:44:01.247Z,20.75
2023-03-01T21:46:31.218Z,22.80
2023-03-01T21:48:59.030Z,20.42
2023-03-01T21:51:27.747Z,21.63
2023-03-01T21:53:56.130Z,20.92
2023-03-01T21:56:25.150Z,24.52
2023-03-01T21:58:52.730Z,21.92
2023-03-01T22:01:29.586Z,22.70
2023-03-01T22:03:58.119Z,22.42
2023-03-01T22:06:29.069Z,24.33
2023-03-01T22:09:04.482Z,22.27
2023-03-01T22:11:33.353Z,23.98
2023-03-01T22:14:00.470Z,24.30
2023-03-01T22:16:30.488Z,22.20
2023-03-01T22:18:58.321Z,21.20
2023-03-01T22:21:25.732Z,22.55
2023-03-01T22:23:53.950Z,20.77
2023-03-01T22:26:25.874Z,21.55
2023-03-01T22:28:54.313Z,20.83
2023-03-01T22:31:21.759Z,20.70
2023-03-01T22:33:49.559Z,19.45
2023-03-01T22:36:16.452Z,18.70
2023-03-01T22:38:43.328Z,20.35
2023-03-01T22:41:10.492Z,21.60
2023-03-01T22:43:37.521Z,17.35
2023-03-01T22:46:16.080Z,20.60
2023-03-01T22:48:43.082Z,18.48
2023-03-01T22:51:15.701Z,17.27
2023-03-01T22:53:42.701Z,19.13
2023-03-01T22:56:30.666Z,21.33
2023-03-01T22:59:05.328Z,20.23
2023-03-01T23:01:32.193Z,18.73
2023-03-01T23:03:59.157Z,20.13
2023-03-01T23:06:25.924Z,16.63
2023-03-01T23:08:56.482Z,22.92
2023-03-01T23:11:24.821Z,18.95
2023-03-01T23:13:52.837Z,19.67
2023-03-01T23:16:26.267Z,22.58
2023-03-01T23:18:55.036Z,20.30
2023-03-01T23:21:22.777Z,21.05
2023-03-01T23:23:49.548Z,20.23
2023-03-01T23:26:18.261Z,20.58
2023-03-01T23:28:45.320Z,21.98
2023-03-01T23:31:15.137Z,22.58
2023-03-01T23:33:44.587Z,24.05
2023-03-01T23:36:16.084Z,24.52
2023-03-01T23:38:42.991Z,23.98
2023-03-01T23:41:14.775Z,22.95
2023-03-01T23:46:14.320Z,25.08
2023-03-01T23:48:45.129Z,25.73
2023-03-01T23:51:12.926Z,26.13
2023-03-01T23:53:43.428Z,30.35
2023-03-01T23:56:12.830Z,27.58
2023-03-01T23:58:39.555Z,32.05
